sensor_id;sensor_type;location;lat;lon;timestamp;temperature;humidity
43143;DHT22;28750;59.842;17.584;2022-10-22T00:02:18;4.10;99.90
43143;DHT22;28750;59.842;17.584;2022-10-22T00:04:47;4.20;99.90
43143;DHT22;28750;59.842;17.584;2022-10-22T00:07:14;4.20;99.90
43143;DHT22;28750;59.842;17.584;2022-10-22T00:09:42;4.20;99.90
43143;DHT22;28750;59.842;17.584;2022-10-22T00:12:09;4.10;99.90
43143;DHT22;28750;59.842;17.584;2022-10-22T00:14:36;4.20;99.90
43143;DHT22;28750;59.842;17.584;2022-10-22T00:17:03;4.30;99.90
43143;DHT22;28750;59.842;17.584;2022-10-22T00:19:30;4.30;99.90
43143;DHT22;28750;59.842;17.584;2022-10-22T00:21:57;4.30;99.90
43143;DHT22;28750;59.842;17.584;2022-10-22T00:24:25;4.30;99.90
43143;DHT22;28750;59.842;17.584;2022-10-22T00:26:52;4.30;99.90
43143;DHT22;28750;59.842;17.584;2022-10-22T00:29:19;4.30;99.90
43143;DHT22;28750;59.842;17.584;2022-10-22T00:31:46;4.20;99.90
43143;DHT22;28750;59.842;17.584;2022-10-22T00:34:19;4.20;99.90
43143;DHT22;28750;59.842;17.584;2022-10-22T00:36:48;4.20;99.90
43143;DHT22;28750;59.842;17.584;2022-10-22T00:39:18;4.20;99.90
43143;DHT22;28750;59.842;17.584;2022-10-22T00:41:47;4.20;99.90
43143;DHT22;28750;59.842;17.584;2022-10-22T00:47:19;4.20;99.90
43143;DHT22;28750;59.842;17.584;2022-10-22T00:49:47;4.30;99.90
43143;DHT22;28750;59.842;17.584;2022-10-22T00:52:15;4.20;99.90
43143;DHT22;28750;59.842;17.584;2022-10-22T00:54:42;4.20;99.90
43143;DHT22;28750;59.842;17.584;2022-10-22T00:57:09;4.30;99.90
43143;DHT22;28750;59.842;17.584;2022-10-22T00:59:37;4.30;99.90
43143;DHT22;28750;59.842;17.584;2022-10-22T01:02:04;4.30;99.90
43143;DHT22;28750;59.842;17.584;2022-10-22T01:04:31;4.20;99.90
43143;DHT22;28750;59.842;17.584;2022-10-22T01:06:58;4.30;99.90
43143;DHT22;28750;59.842;17.584;2022-10-22T01:12:26;4.40;99.90
43143;DHT22;28750;59.842;17.584;2022-10-22T01:15:01;4.30;99.90
43143;DHT22;28750;59.842;17.584;2022-10-22T01:17:56;4.30;99.90
43143;DHT22;28750;59.842;17.584;2022-10-22T01:26:30;4.40;99.90
43143;DHT22;28750;59.842;17.584;2022-10-22T01:31:35;4.30;99.90
43143;DHT22;28750;59.842;17.584;2022-10-22T01:34:05;4.40;99.90
43143;DHT22;28750;59.842;17.584;2022-10-22T01:36:35;4.40;99.90
43143;DHT22;28750;59.842;17.584;2022-10-22T01:39:04;4.40;99.90
43143;DHT22;28750;59.842;17.584;2022-10-22T01:41:33;4.40;99.90
43143;DHT22;28750;59.842;17.584;2022-10-22T01:44:01;4.30;99.90
43143;DHT22;28750;59.842;17.584;2022-10-22T01:46:28;4.30;99.90
43143;DHT22;28750;59.842;17.584;2022-10-22T01:49:15;4.20;99.90
43143;DHT22;28750;59.842;17.584;2022-10-22T01:54:28;4.30;99.90
43143;DHT22;28750;59.842;17.584;2022-10-22T02:00:07;4.30;99.90
43143;DHT22;28750;59.842;17.584;2022-10-22T02:07:40;4.30;99.90
43143;DHT22;28750;59.842;17.584;2022-10-22T02:10:09;4.40;99.90
43143;DHT22;28750;59.842;17.584;2022-10-22T02:12:39;4.30;99.90
43143;DHT22;28750;59.842;17.584;2022-10-22T02:15:07;4.40;99.90
43143;DHT22;28750;59.842;17.584;2022-10-22T02:17:37;4.40;99.90
43143;DHT22;28750;59.842;17.584;2022-10-22T02:22:34;4.40;99.90
43143;DHT22;28750;59.842;17.584;2022-10-22T02:25:04;4.30;99.90
43143;DHT22;28750;59.842;17.584;2022-10-22T02:27:38;4.40;99.90
43143;DHT22;28750;59.842;17.584;2022-10-22T02:30:10;4.40;99.90
43143;DHT22;28750;59.842;17.584;2022-10-22T02:32:45;4.40;99.90
43143;DHT22;28750;59.842;17.584;2022-10-22T02:35:19;4.40;99.90
43143;DHT22;28750;59.842;17.584;2022-10-22T02:37:47;4.40;99.90
43143;DHT22;28750;59.842;17.584;2022-10-22T02:40:15;4.30;99.90
43143;DHT22;28750;59.842;17.584;2022-10-22T02:42:45;4.40;99.90
43143;DHT22;28750;59.842;17.584;2022-10-22T02:45:13;4.30;99.90
43143;DHT22;28750;59.842;17.584;2022-10-22T02:47:41;4.30;99.90
43143;DHT22;28750;59.842;17.584;2022-10-22T02:50:08;4.30;99.90
43143;DHT22;28750;59.842;17.584;2022-10-22T02:52:35;4.30;99.90
43143;DHT22;28750;59.842;17.584;2022-10-22T02:55:03;4.30;99.90
43143;DHT22;28750;59.842;17.584;2022-10-22T02:57:31;4.40;99.90
43143;DHT22;28750;59.842;17.584;2022-10-22T02:59:58;4.40;99.90
43143;DHT22;28750;59.842;17.584;2022-10-22T03:02:25;4.40;99.90
43143;DHT22;28750;59.842;17.584;2022-10-22T03:04:52;4.50;99.90
43143;DHT22;28750;59.842;17.584;2022-10-22T03:07:19;4.40;99.90
43143;DHT22;28750;59.842;17.584;2022-10-22T03:09:46;4.40;99.90
43143;DHT22;28750;59.842;17.584;2022-10-22T03:12:13;4.50;99.90
43143;DHT22;28750;59.842;17.584;2022-10-22T03:14:39;4.40;99.90
43143;DHT22;28750;59.842;17.584;2022-10-22T03:17:06;4.50;99.90
43143;DHT22;28750;59.842;17.584;2022-10-22T03:19:34;4.50;99.90
43143;DHT22;28750;59.842;17.584;2022-10-22T03:22:09;4.40;99.90
43143;DHT22;28750;59.842;17.584;2022-10-22T03:24:43;4.40;99.90
43143;DHT22;28750;59.842;17.584;2022-10-22T03:27:12;4.30;99.90
43143;DHT22;28750;59.842;17.584;2022-10-22T03:29:41;4.30;99.90
43143;DHT22;28750;59.842;17.584;2022-10-22T03:32:09;4.40;99.90
43143;DHT22;28750;59.842;17.584;2022-10-22T03:34:36;4.40;99.90
43143;DHT22;28750;59.842;17.584;2022-10-22T03:37:03;4.40;99.90
43143;DHT22;28750;59.842;17.584;2022-10-22T03:39:32;4.50;99.90
43143;DHT22;28750;59.842;17.584;2022-10-22T03:42:01;4.40;99.90
43143;DHT22;28750;59.842;17.584;2022-10-22T03:44:29;4.40;99.90
43143;DHT22;28750;59.842;17.584;2022-10-22T03:46:57;4.40;99.90
43143;DHT22;28750;59.842;17.584;2022-10-22T03:49:24;4.40;99.90
43143;DHT22;28750;59.842;17.584;2022-10-22T03:51:51;4.30;99.90
43143;DHT22;28750;59.842;17.584;2022-10-22T03:54:18;4.50;99.90
43143;DHT22;28750;59.842;17.584;2022-10-22T03:56:45;4.40;99.90
43143;DHT22;28750;59.842;17.584;2022-10-22T03:59:12;4.50;99.90
43143;DHT22;28750;59.842;17.584;2022-10-22T04:01:39;4.40;99.90
43143;DHT22;28750;59.842;17.584;2022-10-22T04:04:07;4.40;99.90
43143;DHT22;28750;59.842;17.584;2022-10-22T04:06:34;4.50;99.90
43143;DHT22;28750;59.842;17.584;2022-10-22T04:09:01;4.50;99.90
43143;DHT22;28750;59.842;17.584;2022-10-22T04:11:27;4.40;99.90
43143;DHT22;28750;59.842;17.584;2022-10-22T04:13:54;4.40;99.90
43143;DHT22;28750;59.842;17.584;2022-10-22T04:16:22;4.30;99.90
43143;DHT22;28750;59.842;17.584;2022-10-22T04:18:49;4.40;99.90
43143;DHT22;28750;59.842;17.584;2022-10-22T04:21:18;4.30;99.90
43143;DHT22;28750;59.842;17.584;2022-10-22T04:23:50;4.40;99.90
43143;DHT22;28750;59.842;17.584;2022-10-22T04:26:18;4.40;99.90
43143;DHT22;28750;59.842;17.584;2022-10-22T04:28:47;4.40;99.90
43143;DHT22;28750;59.842;17.584;2022-10-22T04:31:18;4.40;99.90
43143;DHT22;28750;59.842;17.584;2022-10-22T04:33:45;4.40;99.90
43143;DHT22;28750;59.842;17.584;2022-10-22T04:36:15;4.30;99.90
43143;DHT22;28750;59.842;17.584;2022-10-22T04:38:44;4.30;99.90
43143;DHT22;28750;59.842;17.584;2022-10-22T04:41:18;4.30;99.90
43143;DHT22;28750;59.842;17.584;2022-10-22T04:43:47;4.30;99.90
43143;DHT22;28750;59.842;17.584;2022-10-22T04:46:15;4.30;99.90
43143;DHT22;28750;59.842;17.584;2022-10-22T04:48:43;4.20;99.90
43143;DHT22;28750;59.842;17.584;2022-10-22T04:51:13;4.20;99.90
43143;DHT22;28750;59.842;17.584;2022-10-22T04:53:41;4.40;99.90
43143;DHT22;28750;59.842;17.584;2022-10-22T04:56:11;4.30;99.90
43143;DHT22;28750;59.842;17.584;2022-10-22T04:58:42;4.40;99.90
43143;DHT22;28750;59.842;17.584;2022-10-22T05:03:38;4.40;99.90
43143;DHT22;28750;59.842;17.584;2022-10-22T05:06:06;4.40;99.90
43143;DHT22;28750;59.842;17.584;2022-10-22T05:08:33;4.40;99.90
43143;DHT22;28750;59.842;17.584;2022-10-22T05:11:24;4.30;99.90
43143;DHT22;28750;59.842;17.584;2022-10-22T05:13:53;4.30;99.90
43143;DHT22;28750;59.842;17.584;2022-10-22T05:16:20;4.40;99.90
43143;DHT22;28750;59.842;17.584;2022-10-22T05:18:48;4.40;99.90
43143;DHT22;28750;59.842;17.584;2022-10-22T05:21:17;4.40;99.90
43143;DHT22;28750;59.842;17.584;2022-10-22T05:23:45;4.50;99.90
43143;DHT22;28750;59.842;17.584;2022-10-22T05:26:14;4.50;99.90
43143;DHT22;28750;59.842;17.584;2022-10-22T05:28:42;4.50;99.90
43143;DHT22;28750;59.842;17.584;2022-10-22T05:31:11;4.50;99.90
43143;DHT22;28750;59.842;17.584;2022-10-22T05:33:39;4.50;99.90
43143;DHT22;28750;59.842;17.584;2022-10-22T05:36:08;4.60;99.90
43143;DHT22;28750;59.842;17.584;2022-10-22T05:38:36;4.60;99.90
43143;DHT22;28750;59.842;17.584;2022-10-22T05:43:33;4.60;99.90
43143;DHT22;28750;59.842;17.584;2022-10-22T05:46:08;4.60;99.90
43143;DHT22;28750;59.842;17.584;2022-10-22T05:48:36;4.60;99.90
43143;DHT22;28750;59.842;17.584;2022-10-22T05:51:05;4.50;99.90
43143;DHT22;28750;59.842;17.584;2022-10-22T05:53:34;4.60;99.90
43143;DHT22;28750;59.842;17.584;2022-10-22T05:56:04;4.60;99.90
43143;DHT22;28750;59.842;17.584;2022-10-22T05:58:32;4.60;99.90
43143;DHT22;28750;59.842;17.584;2022-10-22T06:01:04;4.60;99.90
43143;DHT22;28750;59.842;17.584;2022-10-22T06:03:32;4.70;99.90
43143;DHT22;28750;59.842;17.584;2022-10-22T06:06:08;4.60;99.90
43143;DHT22;28750;59.842;17.584;2022-10-22T06:08:38;4.60;99.90
43143;DHT22;28750;59.842;17.584;2022-10-22T06:11:05;4.60;99.90
43143;DHT22;28750;59.842;17.584;2022-10-22T06:13:32;4.60;99.90
43143;DHT22;28750;59.842;17.584;2022-10-22T06:15:59;4.70;99.90
43143;DHT22;28750;59.842;17.584;2022-10-22T06:18:26;4.60;99.90
43143;DHT22;28750;59.842;17.584;2022-10-22T06:20:53;4.60;99.90
43143;DHT22;28750;59.842;17.584;2022-10-22T06:23:20;4.70;99.90
43143;DHT22;28750;59.842;17.584;2022-10-22T06:26:00;4.80;99.90
43143;DHT22;28750;59.842;17.584;2022-10-22T06:28:27;4.80;99.90
43143;DHT22;28750;59.842;17.584;2022-10-22T06:30:57;4.80;99.90
43143;DHT22;28750;59.842;17.584;2022-10-22T06:33:25;4.80;99.90
43143;DHT22;28750;59.842;17.584;2022-10-22T06:35:53;4.80;99.90
43143;DHT22;28750;59.842;17.584;2022-10-22T06:38:20;4.80;99.90
43143;DHT22;28750;59.842;17.584;2022-10-22T06:40:47;4.80;99.90
43143;DHT22;28750;59.842;17.584;2022-10-22T06:43:14;4.90;99.90
43143;DHT22;28750;59.842;17.584;2022-10-22T06:45:41;4.90;99.90
43143;DHT22;28750;59.842;17.584;2022-10-22T06:48:08;4.90;99.90
43143;DHT22;28750;59.842;17.584;2022-10-22T06:50:35;4.90;99.90
43143;DHT22;28750;59.842;17.584;2022-10-22T06:53:02;5.00;99.90
43143;DHT22;28750;59.842;17.584;2022-10-22T06:55:29;4.90;99.90
43143;DHT22;28750;59.842;17.584;2022-10-22T06:57:56;4.90;99.90
43143;DHT22;28750;59.842;17.584;2022-10-22T07:00:23;4.90;99.90
43143;DHT22;28750;59.842;17.584;2022-10-22T07:02:51;4.90;99.90
43143;DHT22;28750;59.842;17.584;2022-10-22T07:05:18;5.00;99.90
43143;DHT22;28750;59.842;17.584;2022-10-22T07:07:46;5.00;99.90
43143;DHT22;28750;59.842;17.584;2022-10-22T07:10:13;5.10;99.90
43143;DHT22;28750;59.842;17.584;2022-10-22T07:12:40;5.20;99.90
43143;DHT22;28750;59.842;17.584;2022-10-22T07:15:07;5.30;99.90
43143;DHT22;28750;59.842;17.584;2022-10-22T07:17:34;5.30;99.90
43143;DHT22;28750;59.842;17.584;2022-10-22T07:20:01;5.40;99.90
43143;DHT22;28750;59.842;17.584;2022-10-22T07:22:28;5.50;99.90
43143;DHT22;28750;59.842;17.584;2022-10-22T07:24:55;5.40;99.90
43143;DHT22;28750;59.842;17.584;2022-10-22T07:27:22;5.50;99.90
43143;DHT22;28750;59.842;17.584;2022-10-22T07:29:49;5.60;99.90
43143;DHT22;28750;59.842;17.584;2022-10-22T07:32:16;5.60;99.90
43143;DHT22;28750;59.842;17.584;2022-10-22T07:34:43;5.60;99.90
43143;DHT22;28750;59.842;17.584;2022-10-22T07:37:10;5.70;99.90
43143;DHT22;28750;59.842;17.584;2022-10-22T07:39:37;5.70;99.90
43143;DHT22;28750;59.842;17.584;2022-10-22T07:42:04;5.80;99.90
43143;DHT22;28750;59.842;17.584;2022-10-22T07:44:31;5.80;99.90
43143;DHT22;28750;59.842;17.584;2022-10-22T07:46:58;5.80;99.90
43143;DHT22;28750;59.842;17.584;2022-10-22T07:49:25;5.80;99.90
43143;DHT22;28750;59.842;17.584;2022-10-22T07:51:52;5.80;99.90
43143;DHT22;28750;59.842;17.584;2022-10-22T07:54:22;5.80;99.90
43143;DHT22;28750;59.842;17.584;2022-10-22T07:56:49;5.80;99.90
43143;DHT22;28750;59.842;17.584;2022-10-22T07:59:16;5.90;99.90
43143;DHT22;28750;59.842;17.584;2022-10-22T08:01:43;5.90;99.90
43143;DHT22;28750;59.842;17.584;2022-10-22T08:04:11;5.90;99.90
43143;DHT22;28750;59.842;17.584;2022-10-22T08:06:38;6.00;99.90
43143;DHT22;28750;59.842;17.584;2022-10-22T08:09:05;6.00;99.90
43143;DHT22;28750;59.842;17.584;2022-10-22T08:11:32;6.00;99.90
43143;DHT22;28750;59.842;17.584;2022-10-22T08:13:59;6.10;99.90
43143;DHT22;28750;59.842;17.584;2022-10-22T08:16:26;6.10;99.90
43143;DHT22;28750;59.842;17.584;2022-10-22T08:18:53;6.10;99.90
43143;DHT22;28750;59.842;17.584;2022-10-22T08:21:20;6.10;99.90
43143;DHT22;28750;59.842;17.584;2022-10-22T08:23:47;6.20;99.90
43143;DHT22;28750;59.842;17.584;2022-10-22T08:26:14;6.20;99.90
43143;DHT22;28750;59.842;17.584;2022-10-22T08:28:41;6.20;99.90
43143;DHT22;28750;59.842;17.584;2022-10-22T08:31:08;6.30;99.90
43143;DHT22;28750;59.842;17.584;2022-10-22T08:33:37;6.30;99.90
43143;DHT22;28750;59.842;17.584;2022-10-22T08:36:05;6.40;99.90
43143;DHT22;28750;59.842;17.584;2022-10-22T08:38:32;6.40;99.90
43143;DHT22;28750;59.842;17.584;2022-10-22T08:41:20;6.50;99.90
43143;DHT22;28750;59.842;17.584;2022-10-22T08:44:04;6.50;99.90
43143;DHT22;28750;59.842;17.584;2022-10-22T08:46:39;6.50;99.90
43143;DHT22;28750;59.842;17.584;2022-10-22T08:49:23;6.50;99.90
43143;DHT22;28750;59.842;17.584;2022-10-22T08:51:52;6.60;99.90
43143;DHT22;28750;59.842;17.584;2022-10-22T08:57:03;6.70;99.90
43143;DHT22;28750;59.842;17.584;2022-10-22T08:59:42;6.70;99.90
43143;DHT22;28750;59.842;17.584;2022-10-22T09:05:16;6.70;99.90
43143;DHT22;28750;59.842;17.584;2022-10-22T09:07:45;6.80;99.90
43143;DHT22;28750;59.842;17.584;2022-10-22T09:10:21;6.80;99.90
43143;DHT22;28750;59.842;17.584;2022-10-22T09:12:50;6.80;99.90
43143;DHT22;28750;59.842;17.584;2022-10-22T09:15:18;6.80;99.90
43143;DHT22;28750;59.842;17.584;2022-10-22T09:18:05;6.80;99.90
43143;DHT22;28750;59.842;17.584;2022-10-22T09:20:53;6.80;99.90
43143;DHT22;28750;59.842;17.584;2022-10-22T09:26:18;6.90;99.90
43143;DHT22;28750;59.842;17.584;2022-10-22T09:28:49;7.00;99.90
43143;DHT22;28750;59.842;17.584;2022-10-22T09:31:16;7.10;99.90
43143;DHT22;28750;59.842;17.584;2022-10-22T09:33:45;7.20;99.90
43143;DHT22;28750;59.842;17.584;2022-10-22T09:36:19;7.20;99.90
43143;DHT22;28750;59.842;17.584;2022-10-22T09:38:49;7.20;99.90
43143;DHT22;28750;59.842;17.584;2022-10-22T09:41:22;7.30;99.90
43143;DHT22;28750;59.842;17.584;2022-10-22T09:43:50;7.40;99.90
43143;DHT22;28750;59.842;17.584;2022-10-22T09:46:22;7.50;99.90
43143;DHT22;28750;59.842;17.584;2022-10-22T09:49:03;7.50;99.90
43143;DHT22;28750;59.842;17.584;2022-10-22T09:54:24;7.60;99.90
43143;DHT22;28750;59.842;17.584;2022-10-22T09:57:12;7.70;99.90
43143;DHT22;28750;59.842;17.584;2022-10-22T09:59:42;7.70;99.90
43143;DHT22;28750;59.842;17.584;2022-10-22T10:02:13;7.80;99.90
43143;DHT22;28750;59.842;17.584;2022-10-22T10:05:01;7.90;99.90
43143;DHT22;28750;59.842;17.584;2022-10-22T10:07:32;7.90;99.90
43143;DHT22;28750;59.842;17.584;2022-10-22T10:10:00;8.00;99.90
43143;DHT22;28750;59.842;17.584;2022-10-22T10:12:39;8.00;99.90
43143;DHT22;28750;59.842;17.584;2022-10-22T10:15:58;8.10;99.90
43143;DHT22;28750;59.842;17.584;2022-10-22T10:32:33;8.10;99.90
43143;DHT22;28750;59.842;17.584;2022-10-22T10:43:15;8.20;99.90
43143;DHT22;28750;59.842;17.584;2022-10-22T10:56:55;8.40;99.90
43143;DHT22;28750;59.842;17.584;2022-10-22T11:07:57;8.50;99.90
43143;DHT22;28750;59.842;17.584;2022-10-22T11:18:50;8.70;99.90
43143;DHT22;28750;59.842;17.584;2022-10-22T11:24:34;8.70;99.90
43143;DHT22;28750;59.842;17.584;2022-10-22T11:27:14;8.70;99.90
43143;DHT22;28750;59.842;17.584;2022-10-22T11:29:51;8.80;99.90
43143;DHT22;28750;59.842;17.584;2022-10-22T11:32:20;8.80;99.90
43143;DHT22;28750;59.842;17.584;2022-10-22T11:34:54;8.80;99.90
43143;DHT22;28750;59.842;17.584;2022-10-22T11:37:24;8.80;99.90
43143;DHT22;28750;59.842;17.584;2022-10-22T11:42:53;8.80;99.90
43143;DHT22;28750;59.842;17.584;2022-10-22T11:50:48;8.80;99.90
43143;DHT22;28750;59.842;17.584;2022-10-22T11:53:27;8.80;99.90
43143;DHT22;28750;59.842;17.584;2022-10-22T11:56:02;8.80;99.90
43143;DHT22;28750;59.842;17.584;2022-10-22T11:58:39;8.80;99.90
43143;DHT22;28750;59.842;17.584;2022-10-22T12:07:25;8.70;99.90
43143;DHT22;28750;59.842;17.584;2022-10-22T12:09:39;8.70;99.90
43143;DHT22;28750;59.842;17.584;2022-10-22T12:12:12;8.70;99.90
43143;DHT22;28750;59.842;17.584;2022-10-22T12:14:56;8.70;99.90
43143;DHT22;28750;59.842;17.584;2022-10-22T12:17:24;8.80;99.90
43143;DHT22;28750;59.842;17.584;2022-10-22T12:20:10;8.70;99.90
43143;DHT22;28750;59.842;17.584;2022-10-22T12:22:38;8.70;99.90
43143;DHT22;28750;59.842;17.584;2022-10-22T12:25:16;8.80;99.90
43143;DHT22;28750;59.842;17.584;2022-10-22T12:27:52;8.80;99.90
43143;DHT22;28750;59.842;17.584;2022-10-22T12:32:56;8.70;99.90
43143;DHT22;28750;59.842;17.584;2022-10-22T12:35:28;8.70;99.90
43143;DHT22;28750;59.842;17.584;2022-10-22T12:37:57;8.70;99.90
43143;DHT22;28750;59.842;17.584;2022-10-22T12:40:33;8.70;99.90
43143;DHT22;28750;59.842;17.584;2022-10-22T12:43:11;8.70;99.90
43143;DHT22;28750;59.842;17.584;2022-10-22T12:45:40;8.60;99.90
43143;DHT22;28750;59.842;17.584;2022-10-22T12:48:28;8.70;99.90
43143;DHT22;28750;59.842;17.584;2022-10-22T12:51:00;8.60;99.90
43143;DHT22;28750;59.842;17.584;2022-10-22T12:53:33;8.60;99.90
43143;DHT22;28750;59.842;17.584;2022-10-22T12:56:11;8.60;99.90
43143;DHT22;28750;59.842;17.584;2022-10-22T12:58:46;8.60;99.90
43143;DHT22;28750;59.842;17.584;2022-10-22T13:01:15;8.60;99.90
43143;DHT22;28750;59.842;17.584;2022-10-22T13:04:17;8.60;99.90
43143;DHT22;28750;59.842;17.584;2022-10-22T13:06:35;8.60;99.90
43143;DHT22;28750;59.842;17.584;2022-10-22T13:11:48;8.60;99.90
43143;DHT22;28750;59.842;17.584;2022-10-22T13:14:29;8.60;99.90
43143;DHT22;28750;59.842;17.584;2022-10-22T13:19:39;8.70;99.90
43143;DHT22;28750;59.842;17.584;2022-10-22T13:22:39;8.70;99.90
43143;DHT22;28750;59.842;17.584;2022-10-22T13:28:19;8.70;99.90
43143;DHT22;28750;59.842;17.584;2022-10-22T13:31:00;8.70;99.90
43143;DHT22;28750;59.842;17.584;2022-10-22T13:33:39;8.60;99.90
43143;DHT22;28750;59.842;17.584;2022-10-22T13:36:13;8.60;99.90
43143;DHT22;28750;59.842;17.584;2022-10-22T13:38:41;8.60;99.90
43143;DHT22;28750;59.842;17.584;2022-10-22T13:41:25;8.60;99.90
43143;DHT22;28750;59.842;17.584;2022-10-22T13:43:54;8.60;99.90
43143;DHT22;28750;59.842;17.584;2022-10-22T13:46:21;8.60;99.90
43143;DHT22;28750;59.842;17.584;2022-10-22T13:48:51;8.60;99.90
43143;DHT22;28750;59.842;17.584;2022-10-22T13:51:25;8.60;99.90
43143;DHT22;28750;59.842;17.584;2022-10-22T13:53:53;8.50;99.90
43143;DHT22;28750;59.842;17.584;2022-10-22T13:56:21;8.50;99.90
43143;DHT22;28750;59.842;17.584;2022-10-22T13:58:49;8.40;99.90
43143;DHT22;28750;59.842;17.584;2022-10-22T14:01:24;8.40;99.90
43143;DHT22;28750;59.842;17.584;2022-10-22T14:03:54;8.40;99.90
43143;DHT22;28750;59.842;17.584;2022-10-22T14:06:22;8.40;99.90
43143;DHT22;28750;59.842;17.584;2022-10-22T14:08:56;8.30;99.90
43143;DHT22;28750;59.842;17.584;2022-10-22T14:11:24;8.30;99.90
43143;DHT22;28750;59.842;17.584;2022-10-22T14:13:52;8.30;99.90
43143;DHT22;28750;59.842;17.584;2022-10-22T14:16:28;8.30;99.90
43143;DHT22;28750;59.842;17.584;2022-10-22T14:18:57;8.30;99.90
43143;DHT22;28750;59.842;17.584;2022-10-22T14:21:25;8.40;99.90
43143;DHT22;28750;59.842;17.584;2022-10-22T14:23:53;8.40;99.90
43143;DHT22;28750;59.842;17.584;2022-10-22T14:26:24;8.40;99.90
43143;DHT22;28750;59.842;17.584;2022-10-22T14:28:52;8.40;99.90
43143;DHT22;28750;59.842;17.584;2022-10-22T14:31:20;8.30;99.90
43143;DHT22;28750;59.842;17.584;2022-10-22T14:33:47;8.40;99.90
43143;DHT22;28750;59.842;17.584;2022-10-22T14:36:16;8.40;99.90
43143;DHT22;28750;59.842;17.584;2022-10-22T14:38:44;8.40;99.90
43143;DHT22;28750;59.842;17.584;2022-10-22T14:41:25;8.40;99.90
43143;DHT22;28750;59.842;17.584;2022-10-22T14:43:53;8.40;99.90
43143;DHT22;28750;59.842;17.584;2022-10-22T14:46:22;8.40;99.90
43143;DHT22;28750;59.842;17.584;2022-10-22T14:48:50;8.30;99.90
43143;DHT22;28750;59.842;17.584;2022-10-22T14:51:19;8.30;99.90
43143;DHT22;28750;59.842;17.584;2022-10-22T14:53:47;8.30;99.90
43143;DHT22;28750;59.842;17.584;2022-10-22T14:56:17;8.30;99.90
43143;DHT22;28750;59.842;17.584;2022-10-22T14:58:45;8.30;99.90
43143;DHT22;28750;59.842;17.584;2022-10-22T15:01:12;8.30;99.90
43143;DHT22;28750;59.842;17.584;2022-10-22T15:03:39;8.30;99.90
43143;DHT22;28750;59.842;17.584;2022-10-22T15:06:06;8.20;99.90
43143;DHT22;28750;59.842;17.584;2022-10-22T15:08:34;8.20;99.90
43143;DHT22;28750;59.842;17.584;2022-10-22T15:11:03;8.20;99.90
43143;DHT22;28750;59.842;17.584;2022-10-22T15:13:32;8.20;99.90
43143;DHT22;28750;59.842;17.584;2022-10-22T15:15:59;8.20;99.90
43143;DHT22;28750;59.842;17.584;2022-10-22T15:18:27;8.20;99.90
43143;DHT22;28750;59.842;17.584;2022-10-22T15:20:59;8.20;99.90
43143;DHT22;28750;59.842;17.584;2022-10-22T15:23:27;8.20;99.90
43143;DHT22;28750;59.842;17.584;2022-10-22T15:25:54;8.20;99.90
43143;DHT22;28750;59.842;17.584;2022-10-22T15:28:22;8.20;99.90
43143;DHT22;28750;59.842;17.584;2022-10-22T15:30:57;8.20;99.90
43143;DHT22;28750;59.842;17.584;2022-10-22T15:33:26;8.20;99.90
43143;DHT22;28750;59.842;17.584;2022-10-22T15:35:54;8.20;99.90
43143;DHT22;28750;59.842;17.584;2022-10-22T15:38:24;8.10;99.90
43143;DHT22;28750;59.842;17.584;2022-10-22T15:41:03;8.20;99.90
43143;DHT22;28750;59.842;17.584;2022-10-22T15:43:31;8.20;99.90
43143;DHT22;28750;59.842;17.584;2022-10-22T15:46:18;8.20;99.90
43143;DHT22;28750;59.842;17.584;2022-10-22T15:48:46;8.20;99.90
43143;DHT22;28750;59.842;17.584;2022-10-22T15:51:15;8.10;99.90
43143;DHT22;28750;59.842;17.584;2022-10-22T15:53:42;8.20;99.90
43143;DHT22;28750;59.842;17.584;2022-10-22T15:56:10;8.10;99.90
43143;DHT22;28750;59.842;17.584;2022-10-22T15:58:37;8.20;99.90
43143;DHT22;28750;59.842;17.584;2022-10-22T16:01:10;8.20;99.90
43143;DHT22;28750;59.842;17.584;2022-10-22T16:03:38;8.20;99.90
43143;DHT22;28750;59.842;17.584;2022-10-22T16:06:06;8.20;99.90
43143;DHT22;28750;59.842;17.584;2022-10-22T16:08:33;8.20;99.90
43143;DHT22;28750;59.842;17.584;2022-10-22T16:11:01;8.10;99.90
43143;DHT22;28750;59.842;17.584;2022-10-22T16:13:27;8.10;99.90
43143;DHT22;28750;59.842;17.584;2022-10-22T16:15:55;8.10;99.90
43143;DHT22;28750;59.842;17.584;2022-10-22T16:18:22;8.10;99.90
43143;DHT22;28750;59.842;17.584;2022-10-22T16:20:49;8.10;99.90
43143;DHT22;28750;59.842;17.584;2022-10-22T16:23:16;8.10;99.90
43143;DHT22;28750;59.842;17.584;2022-10-22T16:25:44;8.10;99.90
43143;DHT22;28750;59.842;17.584;2022-10-22T16:28:11;8.10;99.90
43143;DHT22;28750;59.842;17.584;2022-10-22T16:30:39;8.10;99.90
43143;DHT22;28750;59.842;17.584;2022-10-22T16:33:06;8.10;99.90
43143;DHT22;28750;59.842;17.584;2022-10-22T16:35:39;8.10;99.90
43143;DHT22;28750;59.842;17.584;2022-10-22T16:38:07;8.10;99.90
43143;DHT22;28750;59.842;17.584;2022-10-22T16:40:35;8.10;99.90
43143;DHT22;28750;59.842;17.584;2022-10-22T16:43:02;8.00;99.90
43143;DHT22;28750;59.842;17.584;2022-10-22T16:45:29;8.10;99.90
43143;DHT22;28750;59.842;17.584;2022-10-22T16:47:56;8.10;99.90
43143;DHT22;28750;59.842;17.584;2022-10-22T16:50:23;8.10;99.90
43143;DHT22;28750;59.842;17.584;2022-10-22T16:52:50;8.10;99.90
43143;DHT22;28750;59.842;17.584;2022-10-22T16:55:18;8.10;99.90
43143;DHT22;28750;59.842;17.584;2022-10-22T16:57:51;8.10;99.90
43143;DHT22;28750;59.842;17.584;2022-10-22T17:00:19;8.10;99.90
43143;DHT22;28750;59.842;17.584;2022-10-22T17:02:51;8.10;99.90
43143;DHT22;28750;59.842;17.584;2022-10-22T17:05:19;8.10;99.90
43143;DHT22;28750;59.842;17.584;2022-10-22T17:07:46;8.10;99.90
43143;DHT22;28750;59.842;17.584;2022-10-22T17:10:14;8.10;99.90
43143;DHT22;28750;59.842;17.584;2022-10-22T17:12:41;8.10;99.90
43143;DHT22;28750;59.842;17.584;2022-10-22T17:15:08;8.10;99.90
43143;DHT22;28750;59.842;17.584;2022-10-22T17:17:35;8.10;99.90
43143;DHT22;28750;59.842;17.584;2022-10-22T17:20:03;8.10;99.90
43143;DHT22;28750;59.842;17.584;2022-10-22T17:22:31;8.00;99.90
43143;DHT22;28750;59.842;17.584;2022-10-22T17:25:14;8.00;99.90
43143;DHT22;28750;59.842;17.584;2022-10-22T17:27:42;8.00;99.90
43143;DHT22;28750;59.842;17.584;2022-10-22T17:30:14;8.00;99.90
43143;DHT22;28750;59.842;17.584;2022-10-22T17:32:42;8.00;99.90
43143;DHT22;28750;59.842;17.584;2022-10-22T17:35:10;8.10;99.90
43143;DHT22;28750;59.842;17.584;2022-10-22T17:37:40;8.10;99.90
43143;DHT22;28750;59.842;17.584;2022-10-22T17:40:07;8.00;99.90
43143;DHT22;28750;59.842;17.584;2022-10-22T17:42:34;8.10;99.90
43143;DHT22;28750;59.842;17.584;2022-10-22T17:45:02;8.00;99.90
43143;DHT22;28750;59.842;17.584;2022-10-22T17:47:29;8.00;99.90
43143;DHT22;28750;59.842;17.584;2022-10-22T17:49:56;8.10;99.90
43143;DHT22;28750;59.842;17.584;2022-10-22T17:52:23;8.10;99.90